sensor_id;sensor_type;location;lat;lon;timestamp;temperature;humidity
54124;DHT22;55741;53.252;5.788;2023-02-28T00:01:10;4.10;99.90
54124;DHT22;55741;53.252;5.788;2023-02-28T00:03:37;4.10;99.90
54124;DHT22;55741;53.252;5.788;2023-02-28T00:06:06;4.10;99.90
54124;DHT22;55741;53.252;5.788;2023-02-28T00:08:33;4.10;99.90
54124;DHT22;55741;53.252;5.788;2023-02-28T00:11:03;4.10;99.90
54124;DHT22;55741;53.252;5.788;2023-02-28T00:13:30;4.10;99.90
54124;DHT22;55741;53.252;5.788;2023-02-28T00:16:01;4.10;99.90
54124;DHT22;55741;53.252;5.788;2023-02-28T00:18:28;4.10;99.90
54124;DHT22;55741;53.252;5.788;2023-02-28T00:20:53;4.10;99.90
54124;DHT22;55741;53.252;5.788;2023-02-28T00:23:19;4.10;99.90
54124;DHT22;55741;53.252;5.788;2023-02-28T00:25:45;4.10;99.90
54124;DHT22;55741;53.252;5.788;2023-02-28T00:28:11;4.10;99.90
54124;DHT22;55741;53.252;5.788;2023-02-28T00:30:37;4.10;99.90
54124;DHT22;55741;53.252;5.788;2023-02-28T00:33:03;4.10;99.90
54124;DHT22;55741;53.252;5.788;2023-02-28T00:35:29;4.10;99.90
54124;DHT22;55741;53.252;5.788;2023-02-28T00:37:55;4.10;99.90
54124;DHT22;55741;53.252;5.788;2023-02-28T00:40:21;4.10;99.90
54124;DHT22;55741;53.252;5.788;2023-02-28T00:42:46;4.20;99.90
54124;DHT22;55741;53.252;5.788;2023-02-28T00:45:12;4.20;99.90
54124;DHT22;55741;53.252;5.788;2023-02-28T00:47:38;4.20;99.90
54124;DHT22;55741;53.252;5.788;2023-02-28T00:50:05;4.20;99.90
54124;DHT22;55741;53.252;5.788;2023-02-28T00:52:34;4.20;99.90
54124;DHT22;55741;53.252;5.788;2023-02-28T00:55:00;4.20;99.90
54124;DHT22;55741;53.252;5.788;2023-02-28T00:57:27;4.20;99.90
54124;DHT22;55741;53.252;5.788;2023-02-28T00:59:56;4.20;99.90
54124;DHT22;55741;53.252;5.788;2023-02-28T01:02:23;4.20;99.90
54124;DHT22;55741;53.252;5.788;2023-02-28T01:04:49;4.30;99.90
54124;DHT22;55741;53.252;5.788;2023-02-28T01:07:15;4.30;99.90
54124;DHT22;55741;53.252;5.788;2023-02-28T01:09:41;4.30;99.90
54124;DHT22;55741;53.252;5.788;2023-02-28T01:12:08;4.30;99.90
54124;DHT22;55741;53.252;5.788;2023-02-28T01:14:34;4.30;99.90
54124;DHT22;55741;53.252;5.788;2023-02-28T01:17:00;4.30;99.90
54124;DHT22;55741;53.252;5.788;2023-02-28T01:19:27;4.30;99.90
54124;DHT22;55741;53.252;5.788;2023-02-28T01:21:53;4.30;99.90
54124;DHT22;55741;53.252;5.788;2023-02-28T01:24:19;4.30;99.90
54124;DHT22;55741;53.252;5.788;2023-02-28T01:26:45;4.30;99.90
54124;DHT22;55741;53.252;5.788;2023-02-28T01:29:11;4.30;99.90
54124;DHT22;55741;53.252;5.788;2023-02-28T01:31:36;4.30;99.90
54124;DHT22;55741;53.252;5.788;2023-02-28T01:34:03;4.40;99.90
54124;DHT22;55741;53.252;5.788;2023-02-28T01:36:29;4.30;99.90
54124;DHT22;55741;53.252;5.788;2023-02-28T01:38:55;4.30;99.90
54124;DHT22;55741;53.252;5.788;2023-02-28T01:41:39;4.30;99.90
54124;DHT22;55741;53.252;5.788;2023-02-28T01:47:10;4.30;99.90
54124;DHT22;55741;53.252;5.788;2023-02-28T01:49:36;4.30;99.90
54124;DHT22;55741;53.252;5.788;2023-02-28T01:52:02;4.30;99.90
54124;DHT22;55741;53.252;5.788;2023-02-28T01:54:31;4.30;99.90
54124;DHT22;55741;53.252;5.788;2023-02-28T01:57:10;4.30;99.90
54124;DHT22;55741;53.252;5.788;2023-02-28T01:59:43;4.30;99.90
54124;DHT22;55741;53.252;5.788;2023-02-28T02:02:16;4.30;99.90
54124;DHT22;55741;53.252;5.788;2023-02-28T02:05:07;4.30;99.90
54124;DHT22;55741;53.252;5.788;2023-02-28T02:07:36;4.40;99.90
54124;DHT22;55741;53.252;5.788;2023-02-28T02:10:12;4.40;99.90
54124;DHT22;55741;53.252;5.788;2023-02-28T02:15:42;4.40;99.90
54124;DHT22;55741;53.252;5.788;2023-02-28T02:28:58;4.50;99.90
54124;DHT22;55741;53.252;5.788;2023-02-28T02:40:07;4.60;99.90
54124;DHT22;55741;53.252;5.788;2023-02-28T02:45:23;4.50;99.90
54124;DHT22;55741;53.252;5.788;2023-02-28T02:47:51;4.60;99.90
54124;DHT22;55741;53.252;5.788;2023-02-28T02:50:24;4.60;99.90
54124;DHT22;55741;53.252;5.788;2023-02-28T02:52:55;4.60;99.90
54124;DHT22;55741;53.252;5.788;2023-02-28T02:55:24;4.60;99.90
54124;DHT22;55741;53.252;5.788;2023-02-28T02:57:54;4.60;99.90
54124;DHT22;55741;53.252;5.788;2023-02-28T03:00:29;4.60;99.90
54124;DHT22;55741;53.252;5.788;2023-02-28T03:02:56;4.60;99.90
54124;DHT22;55741;53.252;5.788;2023-02-28T03:05:34;4.70;99.90
54124;DHT22;55741;53.252;5.788;2023-02-28T03:08:04;4.70;99.90
54124;DHT22;55741;53.252;5.788;2023-02-28T03:10:40;4.70;99.90
54124;DHT22;55741;53.252;5.788;2023-02-28T03:13:32;4.70;99.90
54124;DHT22;55741;53.252;5.788;2023-02-28T03:24:56;4.80;99.90
54124;DHT22;55741;53.252;5.788;2023-02-28T03:27:29;4.80;99.90
54124;DHT22;55741;53.252;5.788;2023-02-28T03:30:32;4.80;99.90
54124;DHT22;55741;53.252;5.788;2023-02-28T03:33:18;4.80;99.90
54124;DHT22;55741;53.252;5.788;2023-02-28T03:36:12;4.80;99.90
54124;DHT22;55741;53.252;5.788;2023-02-28T03:38:40;4.80;99.90
54124;DHT22;55741;53.252;5.788;2023-02-28T03:41:14;4.80;99.90
54124;DHT22;55741;53.252;5.788;2023-02-28T03:43:46;4.90;99.90
54124;DHT22;55741;53.252;5.788;2023-02-28T03:46:18;4.90;99.90
54124;DHT22;55741;53.252;5.788;2023-02-28T03:48:57;4.90;99.90
54124;DHT22;55741;53.252;5.788;2023-02-28T03:51:26;4.90;99.90
54124;DHT22;55741;53.252;5.788;2023-02-28T03:53:59;4.90;99.90
54124;DHT22;55741;53.252;5.788;2023-02-28T03:56:34;4.90;99.90
54124;DHT22;55741;53.252;5.788;2023-02-28T03:59:20;4.90;99.90
54124;DHT22;55741;53.252;5.788;2023-02-28T04:01:49;4.90;99.90
54124;DHT22;55741;53.252;5.788;2023-02-28T04:04:16;5.00;99.90
54124;DHT22;55741;53.252;5.788;2023-02-28T04:06:42;4.90;99.90
54124;DHT22;55741;53.252;5.788;2023-02-28T04:09:11;4.90;99.90
54124;DHT22;55741;53.252;5.788;2023-02-28T04:11:40;4.90;99.90
54124;DHT22;55741;53.252;5.788;2023-02-28T04:14:07;4.90;99.90
54124;DHT22;55741;53.252;5.788;2023-02-28T04:16:35;4.90;99.90
54124;DHT22;55741;53.252;5.788;2023-02-28T04:19:06;4.90;99.90
54124;DHT22;55741;53.252;5.788;2023-02-28T04:21:34;4.90;99.90
54124;DHT22;55741;53.252;5.788;2023-02-28T04:24:01;4.90;99.90
54124;DHT22;55741;53.252;5.788;2023-02-28T04:26:35;5.00;99.90
54124;DHT22;55741;53.252;5.788;2023-02-28T04:29:03;5.00;99.90
54124;DHT22;55741;53.252;5.788;2023-02-28T04:31:29;5.00;99.90
54124;DHT22;55741;53.252;5.788;2023-02-28T04:33:55;5.00;99.90
54124;DHT22;55741;53.252;5.788;2023-02-28T04:36:21;5.00;99.90
54124;DHT22;55741;53.252;5.788;2023-02-28T04:38:48;5.00;99.90
54124;DHT22;55741;53.252;5.788;2023-02-28T04:41:15;5.00;99.90
54124;DHT22;55741;53.252;5.788;2023-02-28T04:43:42;5.00;99.90
54124;DHT22;55741;53.252;5.788;2023-02-28T04:46:08;5.10;99.90
54124;DHT22;55741;53.252;5.788;2023-02-28T04:48:37;5.10;99.90
54124;DHT22;55741;53.252;5.788;2023-02-28T04:51:09;5.10;99.90
54124;DHT22;55741;53.252;5.788;2023-02-28T04:53:36;5.10;99.90
54124;DHT22;55741;53.252;5.788;2023-02-28T04:56:03;5.10;99.90
54124;DHT22;55741;53.252;5.788;2023-02-28T04:58:31;5.10;99.90
54124;DHT22;55741;53.252;5.788;2023-02-28T05:01:05;5.10;99.90
54124;DHT22;55741;53.252;5.788;2023-02-28T05:03:39;5.10;99.90
54124;DHT22;55741;53.252;5.788;2023-02-28T05:06:09;5.10;99.90
54124;DHT22;55741;53.252;5.788;2023-02-28T05:08:35;5.10;99.90
54124;DHT22;55741;53.252;5.788;2023-02-28T05:11:02;5.20;99.90
54124;DHT22;55741;53.252;5.788;2023-02-28T05:13:29;5.20;99.90
54124;DHT22;55741;53.252;5.788;2023-02-28T05:15:55;5.20;99.90
54124;DHT22;55741;53.252;5.788;2023-02-28T05:18:22;5.20;99.90
54124;DHT22;55741;53.252;5.788;2023-02-28T05:20:48;5.20;99.90
54124;DHT22;55741;53.252;5.788;2023-02-28T05:23:22;5.20;99.90
54124;DHT22;55741;53.252;5.788;2023-02-28T05:25:48;5.20;99.90
54124;DHT22;55741;53.252;5.788;2023-02-28T05:28:16;5.30;99.90
54124;DHT22;55741;53.252;5.788;2023-02-28T05:30:42;5.30;99.90
54124;DHT22;55741;53.252;5.788;2023-02-28T05:33:11;5.30;99.90
54124;DHT22;55741;53.252;5.788;2023-02-28T05:35:41;5.30;99.90
54124;DHT22;55741;53.252;5.788;2023-02-28T05:38:08;5.30;99.90
54124;DHT22;55741;53.252;5.788;2023-02-28T05:40:38;5.30;99.90
54124;DHT22;55741;53.252;5.788;2023-02-28T05:43:04;5.40;99.90
54124;DHT22;55741;53.252;5.788;2023-02-28T05:45:30;5.30;99.90
54124;DHT22;55741;53.252;5.788;2023-02-28T05:47:56;5.30;99.90
54124;DHT22;55741;53.252;5.788;2023-02-28T05:50:22;5.30;99.90
54124;DHT22;55741;53.252;5.788;2023-02-28T05:52:51;5.30;99.90
54124;DHT22;55741;53.252;5.788;2023-02-28T05:55:17;5.40;99.90
54124;DHT22;55741;53.252;5.788;2023-02-28T05:57:44;5.40;99.90
54124;DHT22;55741;53.252;5.788;2023-02-28T06:00:12;5.40;99.90
54124;DHT22;55741;53.252;5.788;2023-02-28T06:02:40;5.30;99.90
54124;DHT22;55741;53.252;5.788;2023-02-28T06:05:14;5.30;99.90
54124;DHT22;55741;53.252;5.788;2023-02-28T06:07:40;5.30;99.90
54124;DHT22;55741;53.252;5.788;2023-02-28T06:10:08;5.30;99.90
54124;DHT22;55741;53.252;5.788;2023-02-28T06:12:35;5.30;99.90
54124;DHT22;55741;53.252;5.788;2023-02-28T06:15:01;5.30;99.90
54124;DHT22;55741;53.252;5.788;2023-02-28T06:17:27;5.30;99.90
54124;DHT22;55741;53.252;5.788;2023-02-28T06:19:53;5.40;99.90
54124;DHT22;55741;53.252;5.788;2023-02-28T06:22:19;5.30;99.90
54124;DHT22;55741;53.252;5.788;2023-02-28T06:24:44;5.40;99.90
54124;DHT22;55741;53.252;5.788;2023-02-28T06:27:10;5.40;99.90
54124;DHT22;55741;53.252;5.788;2023-02-28T06:29:36;5.40;99.90
54124;DHT22;55741;53.252;5.788;2023-02-28T06:32:05;5.40;99.90
54124;DHT22;55741;53.252;5.788;2023-02-28T06:34:33;5.30;99.90
54124;DHT22;55741;53.252;5.788;2023-02-28T06:36:59;5.40;99.90
54124;DHT22;55741;53.252;5.788;2023-02-28T06:39:29;5.40;99.90
54124;DHT22;55741;53.252;5.788;2023-02-28T06:41:55;5.30;99.90
54124;DHT22;55741;53.252;5.788;2023-02-28T06:44:22;5.30;99.90
54124;DHT22;55741;53.252;5.788;2023-02-28T06:46:49;5.20;99.90
54124;DHT22;55741;53.252;5.788;2023-02-28T06:49:15;5.10;99.90
54124;DHT22;55741;53.252;5.788;2023-02-28T06:51:43;5.00;99.90
54124;DHT22;55741;53.252;5.788;2023-02-28T06:54:12;4.90;99.90
54124;DHT22;55741;53.252;5.788;2023-02-28T06:56:38;4.90;99.90
54124;DHT22;55741;53.252;5.788;2023-02-28T06:59:04;4.80;99.90
54124;DHT22;55741;53.252;5.788;2023-02-28T07:01:32;4.70;99.90
54124;DHT22;55741;53.252;5.788;2023-02-28T07:04:02;4.70;99.90
54124;DHT22;55741;53.252;5.788;2023-02-28T07:06:36;4.50;99.90
54124;DHT22;55741;53.252;5.788;2023-02-28T07:09:02;4.40;99.90
54124;DHT22;55741;53.252;5.788;2023-02-28T07:11:29;4.40;99.90
54124;DHT22;55741;53.252;5.788;2023-02-28T07:13:56;4.30;99.90
54124;DHT22;55741;53.252;5.788;2023-02-28T07:16:23;4.30;99.90
54124;DHT22;55741;53.252;5.788;2023-02-28T07:18:49;4.30;99.90
54124;DHT22;55741;53.252;5.788;2023-02-28T07:21:17;4.20;99.90
54124;DHT22;55741;53.252;5.788;2023-02-28T07:23:43;4.10;99.90
54124;DHT22;55741;53.252;5.788;2023-02-28T07:26:13;4.10;99.90
54124;DHT22;55741;53.252;5.788;2023-02-28T07:28:42;4.10;99.90
54124;DHT22;55741;53.252;5.788;2023-02-28T07:31:09;4.10;99.90
54124;DHT22;55741;53.252;5.788;2023-02-28T07:33:35;4.00;99.90
54124;DHT22;55741;53.252;5.788;2023-02-28T07:36:14;4.00;99.90
54124;DHT22;55741;53.252;5.788;2023-02-28T07:38:50;3.90;99.90
54124;DHT22;55741;53.252;5.788;2023-02-28T07:41:20;3.90;99.90
54124;DHT22;55741;53.252;5.788;2023-02-28T07:43:47;3.90;99.90
54124;DHT22;55741;53.252;5.788;2023-02-28T07:46:15;3.80;99.90
54124;DHT22;55741;53.252;5.788;2023-02-28T07:48:42;3.80;99.90
54124;DHT22;55741;53.252;5.788;2023-02-28T07:51:07;3.70;99.90
54124;DHT22;55741;53.252;5.788;2023-02-28T07:53:34;3.70;99.90
54124;DHT22;55741;53.252;5.788;2023-02-28T07:56:00;3.60;99.90
54124;DHT22;55741;53.252;5.788;2023-02-28T07:58:28;3.60;99.90
54124;DHT22;55741;53.252;5.788;2023-02-28T08:00:54;3.60;99.90
54124;DHT22;55741;53.252;5.788;2023-02-28T08:03:25;3.60;99.90
54124;DHT22;55741;53.252;5.788;2023-02-28T08:05:51;3.60;99.90
54124;DHT22;55741;53.252;5.788;2023-02-28T08:08:18;3.50;99.90
54124;DHT22;55741;53.252;5.788;2023-02-28T08:10:44;3.40;99.90
54124;DHT22;55741;53.252;5.788;2023-02-28T08:13:10;3.50;99.90
54124;DHT22;55741;53.252;5.788;2023-02-28T08:15:36;3.50;99.90
54124;DHT22;55741;53.252;5.788;2023-02-28T08:18:05;3.50;99.90
54124;DHT22;55741;53.252;5.788;2023-02-28T08:20:31;3.50;99.90
54124;DHT22;55741;53.252;5.788;2023-02-28T08:22:59;3.40;99.90
54124;DHT22;55741;53.252;5.788;2023-02-28T08:25:25;3.50;99.90
54124;DHT22;55741;53.252;5.788;2023-02-28T08:27:52;3.50;99.90
54124;DHT22;55741;53.252;5.788;2023-02-28T08:30:18;3.40;99.90
54124;DHT22;55741;53.252;5.788;2023-02-28T08:32:44;3.50;99.90
54124;DHT22;55741;53.252;5.788;2023-02-28T08:35:15;3.40;99.90
54124;DHT22;55741;53.252;5.788;2023-02-28T08:37:42;3.50;99.90
54124;DHT22;55741;53.252;5.788;2023-02-28T08:40:08;3.50;99.90
54124;DHT22;55741;53.252;5.788;2023-02-28T08:42:34;3.60;99.90
54124;DHT22;55741;53.252;5.788;2023-02-28T08:45:00;3.60;99.90
54124;DHT22;55741;53.252;5.788;2023-02-28T08:47:26;3.60;99.90
54124;DHT22;55741;53.252;5.788;2023-02-28T08:49:54;3.70;99.90
54124;DHT22;55741;53.252;5.788;2023-02-28T08:52:22;3.70;99.90
54124;DHT22;55741;53.252;5.788;2023-02-28T08:54:48;3.70;99.90
54124;DHT22;55741;53.252;5.788;2023-02-28T08:57:13;3.70;99.90
54124;DHT22;55741;53.252;5.788;2023-02-28T08:59:39;3.70;99.90
54124;DHT22;55741;53.252;5.788;2023-02-28T09:02:05;3.80;99.90
54124;DHT22;55741;53.252;5.788;2023-02-28T09:04:34;3.90;99.90
54124;DHT22;55741;53.252;5.788;2023-02-28T09:06:59;3.90;99.90
54124;DHT22;55741;53.252;5.788;2023-02-28T09:09:25;4.00;99.90
54124;DHT22;55741;53.252;5.788;2023-02-28T09:11:51;4.00;99.90
54124;DHT22;55741;53.252;5.788;2023-02-28T09:14:18;4.10;99.90
54124;DHT22;55741;53.252;5.788;2023-02-28T09:16:44;4.10;99.90
54124;DHT22;55741;53.252;5.788;2023-02-28T09:19:11;4.20;99.90
54124;DHT22;55741;53.252;5.788;2023-02-28T09:21:37;4.20;99.90
54124;DHT22;55741;53.252;5.788;2023-02-28T09:24:03;4.20;99.90
54124;DHT22;55741;53.252;5.788;2023-02-28T09:26:30;4.30;99.90
54124;DHT22;55741;53.252;5.788;2023-02-28T09:28:55;4.30;99.90
54124;DHT22;55741;53.252;5.788;2023-02-28T09:31:26;4.40;99.90
54124;DHT22;55741;53.252;5.788;2023-02-28T09:33:55;4.40;99.90
54124;DHT22;55741;53.252;5.788;2023-02-28T09:36:23;4.40;99.90
54124;DHT22;55741;53.252;5.788;2023-02-28T09:38:50;4.40;99.90
54124;DHT22;55741;53.252;5.788;2023-02-28T09:41:23;4.50;99.90
54124;DHT22;55741;53.252;5.788;2023-02-28T09:44:01;4.50;99.90
54124;DHT22;55741;53.252;5.788;2023-02-28T09:46:36;4.60;99.90
54124;DHT22;55741;53.252;5.788;2023-02-28T09:49:10;4.70;99.90
54124;DHT22;55741;53.252;5.788;2023-02-28T09:54:24;4.70;99.90
54124;DHT22;55741;53.252;5.788;2023-02-28T09:56:56;4.70;99.90
54124;DHT22;55741;53.252;5.788;2023-02-28T10:04:52;4.70;99.90
54124;DHT22;55741;53.252;5.788;2023-02-28T10:10:36;4.70;99.90
54124;DHT22;55741;53.252;5.788;2023-02-28T10:13:17;4.80;99.90
54124;DHT22;55741;53.252;5.788;2023-02-28T10:15:47;4.90;99.90
54124;DHT22;55741;53.252;5.788;2023-02-28T10:18:21;4.90;99.90
54124;DHT22;55741;53.252;5.788;2023-02-28T10:20:49;5.00;99.90
54124;DHT22;55741;53.252;5.788;2023-02-28T10:23:21;5.10;99.90
54124;DHT22;55741;53.252;5.788;2023-02-28T10:26:12;5.10;99.90
54124;DHT22;55741;53.252;5.788;2023-02-28T10:28:38;5.20;99.90
54124;DHT22;55741;53.252;5.788;2023-02-28T10:31:05;5.20;99.90
54124;DHT22;55741;53.252;5.788;2023-02-28T10:33:35;5.30;99.90
54124;DHT22;55741;53.252;5.788;2023-02-28T10:36:03;5.50;99.90
54124;DHT22;55741;53.252;5.788;2023-02-28T10:38:34;5.70;99.90
54124;DHT22;55741;53.252;5.788;2023-02-28T10:41:05;6.00;99.90
54124;DHT22;55741;53.252;5.788;2023-02-28T10:43:39;6.10;99.90
54124;DHT22;55741;53.252;5.788;2023-02-28T10:51:12;6.10;99.90
54124;DHT22;55741;53.252;5.788;2023-02-28T10:53:48;6.00;99.90
54124;DHT22;55741;53.252;5.788;2023-02-28T10:56:25;6.00;99.90
54124;DHT22;55741;53.252;5.788;2023-02-28T11:01:41;6.10;99.90
54124;DHT22;55741;53.252;5.788;2023-02-28T11:07:16;6.40;99.90
54124;DHT22;55741;53.252;5.788;2023-02-28T11:10:05;6.60;99.90
54124;DHT22;55741;53.252;5.788;2023-02-28T11:12:37;6.70;99.90
54124;DHT22;55741;53.252;5.788;2023-02-28T11:15:23;6.80;99.90
54124;DHT22;55741;53.252;5.788;2023-02-28T11:17:56;6.90;99.90
54124;DHT22;55741;53.252;5.788;2023-02-28T11:20:26;6.90;99.90
54124;DHT22;55741;53.252;5.788;2023-02-28T11:22:55;6.90;99.90
54124;DHT22;55741;53.252;5.788;2023-02-28T11:25:37;6.90;99.90
54124;DHT22;55741;53.252;5.788;2023-02-28T11:28:30;7.00;99.90
54124;DHT22;55741;53.252;5.788;2023-02-28T11:33:41;7.10;99.90
54124;DHT22;55741;53.252;5.788;2023-02-28T11:36:27;7.10;99.90
54124;DHT22;55741;53.252;5.788;2023-02-28T11:39:07;7.20;99.90
54124;DHT22;55741;53.252;5.788;2023-02-28T11:41:52;7.30;99.90
54124;DHT22;55741;53.252;5.788;2023-02-28T11:47:21;7.30;99.90
54124;DHT22;55741;53.252;5.788;2023-02-28T11:50:01;7.40;99.90
54124;DHT22;55741;53.252;5.788;2023-02-28T11:52:51;7.50;99.90
54124;DHT22;55741;53.252;5.788;2023-02-28T11:55:23;7.60;99.90
54124;DHT22;55741;53.252;5.788;2023-02-28T11:58:05;7.70;99.90
54124;DHT22;55741;53.252;5.788;2023-02-28T12:00:44;7.70;99.90
54124;DHT22;55741;53.252;5.788;2023-02-28T12:06:40;7.70;99.90
54124;DHT22;55741;53.252;5.788;2023-02-28T12:09:18;7.90;99.90
54124;DHT22;55741;53.252;5.788;2023-02-28T12:17:10;7.70;99.90
54124;DHT22;55741;53.252;5.788;2023-02-28T12:27:51;7.80;99.90
54124;DHT22;55741;53.252;5.788;2023-02-28T12:30:27;7.80;99.90
54124;DHT22;55741;53.252;5.788;2023-02-28T12:33:09;7.80;99.90
54124;DHT22;55741;53.252;5.788;2023-02-28T12:36:09;7.80;99.90
54124;DHT22;55741;53.252;5.788;2023-02-28T12:38:37;7.90;99.90
54124;DHT22;55741;53.252;5.788;2023-02-28T12:41:34;7.90;99.90
54124;DHT22;55741;53.252;5.788;2023-02-28T12:44:06;8.00;99.90
54124;DHT22;55741;53.252;5.788;2023-02-28T12:46:37;8.00;99.90
54124;DHT22;55741;53.252;5.788;2023-02-28T12:49:19;8.10;99.90
54124;DHT22;55741;53.252;5.788;2023-02-28T12:51:47;8.20;99.90
54124;DHT22;55741;53.252;5.788;2023-02-28T12:54:37;8.40;99.90
54124;DHT22;55741;53.252;5.788;2023-02-28T12:57:22;8.60;99.90
54124;DHT22;55741;53.252;5.788;2023-02-28T12:59:54;8.80;99.90
54124;DHT22;55741;53.252;5.788;2023-02-28T13:10:42;9.50;99.90
54124;DHT22;55741;53.252;5.788;2023-02-28T13:13:15;9.70;99.90
54124;DHT22;55741;53.252;5.788;2023-02-28T13:16:06;9.70;99.90
54124;DHT22;55741;53.252;5.788;2023-02-28T13:18:45;9.70;99.90
54124;DHT22;55741;53.252;5.788;2023-02-28T13:21:24;9.80;99.90
54124;DHT22;55741;53.252;5.788;2023-02-28T13:26:22;9.90;99.90
54124;DHT22;55741;53.252;5.788;2023-02-28T13:31:19;9.90;99.90
54124;DHT22;55741;53.252;5.788;2023-02-28T13:36:27;10.00;99.90
54124;DHT22;55741;53.252;5.788;2023-02-28T13:38:56;10.00;99.90
54124;DHT22;55741;53.252;5.788;2023-02-28T13:44:22;10.00;99.90
54124;DHT22;55741;53.252;5.788;2023-02-28T13:57:44;9.40;99.90
54124;DHT22;55741;53.252;5.788;2023-02-28T14:05:47;9.00;99.90
54124;DHT22;55741;53.252;5.788;2023-02-28T14:08:20;8.80;99.90
54124;DHT22;55741;53.252;5.788;2023-02-28T14:11:22;8.70;99.90
54124;DHT22;55741;53.252;5.788;2023-02-28T14:13:49;8.50;99.90
54124;DHT22;55741;53.252;5.788;2023-02-28T14:16:26;8.40;99.90
54124;DHT22;55741;53.252;5.788;2023-02-28T14:21:38;8.20;99.90
54124;DHT22;55741;53.252;5.788;2023-02-28T14:33:23;7.90;99.90
54124;DHT22;55741;53.252;5.788;2023-02-28T14:38:28;7.80;99.90
54124;DHT22;55741;53.252;5.788;2023-02-28T14:40:58;7.80;99.90
54124;DHT22;55741;53.252;5.788;2023-02-28T14:43:27;7.80;99.90
54124;DHT22;55741;53.252;5.788;2023-02-28T14:46:01;7.80;99.90
54124;DHT22;55741;53.252;5.788;2023-02-28T14:48:39;7.70;99.90
54124;DHT22;55741;53.252;5.788;2023-02-28T14:51:05;7.80;99.90
54124;DHT22;55741;53.252;5.788;2023-02-28T14:53:37;7.90;99.90
54124;DHT22;55741;53.252;5.788;2023-02-28T14:56:03;7.90;99.90
54124;DHT22;55741;53.252;5.788;2023-02-28T14:58:31;8.00;99.90
54124;DHT22;55741;53.252;5.788;2023-02-28T15:01:03;8.00;99.90
54124;DHT22;55741;53.252;5.788;2023-02-28T15:03:37;8.10;99.90
54124;DHT22;55741;53.252;5.788;2023-02-28T15:06:13;8.10;99.90
54124;DHT22;55741;53.252;5.788;2023-02-28T15:08:39;8.20;99.90
54124;DHT22;55741;53.252;5.788;2023-02-28T15:13:48;8.10;99.90
54124;DHT22;55741;53.252;5.788;2023-02-28T15:18:54;8.00;99.90
54124;DHT22;55741;53.252;5.788;2023-02-28T15:21:24;8.00;99.90
54124;DHT22;55741;53.252;5.788;2023-02-28T15:24:06;7.90;99.90
54124;DHT22;55741;53.252;5.788;2023-02-28T15:26:38;7.80;99.90
54124;DHT22;55741;53.252;5.788;2023-02-28T15:29:15;7.80;99.90
54124;DHT22;55741;53.252;5.788;2023-02-28T15:31:57;7.70;99.90
54124;DHT22;55741;53.252;5.788;2023-02-28T15:34:38;7.70;99.90
54124;DHT22;55741;53.252;5.788;2023-02-28T15:39:52;7.50;99.90
54124;DHT22;55741;53.252;5.788;2023-02-28T15:42:21;7.40;99.90
54124;DHT22;55741;53.252;5.788;2023-02-28T15:44:48;7.40;99.90
54124;DHT22;55741;53.252;5.788;2023-02-28T15:47:26;7.30;99.90
54124;DHT22;55741;53.252;5.788;2023-02-28T15:50:08;7.30;99.90
54124;DHT22;55741;53.252;5.788;2023-02-28T15:52:42;7.20;99.90
54124;DHT22;55741;53.252;5.788;2023-02-28T15:55:10;7.10;99.90
54124;DHT22;55741;53.252;5.788;2023-02-28T15:57:39;7.10;99.90
54124;DHT22;55741;53.252;5.788;2023-02-28T16:00:11;7.00;99.90
54124;DHT22;55741;53.252;5.788;2023-02-28T16:02:38;7.00;99.90
54124;DHT22;55741;53.252;5.788;2023-02-28T16:07:41;6.90;99.90
54124;DHT22;55741;53.252;5.788;2023-02-28T16:10:10;6.80;99.90
54124;DHT22;55741;53.252;5.788;2023-02-28T16:12:39;6.80;99.90
54124;DHT22;55741;53.252;5.788;2023-02-28T16:17:45;6.70;99.90
54124;DHT22;55741;53.252;5.788;2023-02-28T16:20:24;6.60;99.90
54124;DHT22;55741;53.252;5.788;2023-02-28T16:22:51;6.60;99.90
54124;DHT22;55741;53.252;5.788;2023-02-28T16:25:19;6.60;99.90
54124;DHT22;55741;53.252;5.788;2023-02-28T16:27:48;6.50;99.90
54124;DHT22;55741;53.252;5.788;2023-02-28T16:30:23;6.50;99.90
54124;DHT22;55741;53.252;5.788;2023-02-28T16:32:51;6.40;99.90
54124;DHT22;55741;53.252;5.788;2023-02-28T16:35:18;6.40;99.90
54124;DHT22;55741;53.252;5.788;2023-02-28T16:37:44;6.30;99.90
54124;DHT22;55741;53.252;5.788;2023-02-28T16:40:22;6.30;99.90
54124;DHT22;55741;53.252;5.788;2023-02-28T16:42:50;6.30;99.90
54124;DHT22;55741;53.252;5.788;2023-02-28T16:45:26;6.20;99.90
54124;DHT22;55741;53.252;5.788;2023-02-28T16:47:52;6.20;99.90
54124;DHT22;55741;53.252;5.788;2023-02-28T16:50:24;6.10;99.90
54124;DHT22;55741;53.252;5.788;2023-02-28T16:52:51;6.00;99.90
54124;DHT22;55741;53.252;5.788;2023-02-28T16:55:21;6.00;99.90
54124;DHT22;55741;53.252;5.788;2023-02-28T16:57:55;5.90;99.90
54124;DHT22;55741;53.252;5.788;2023-02-28T17:00:21;5.90;99.90
54124;DHT22;55741;53.252;5.788;2023-02-28T17:02:48;5.80;99.90
54124;DHT22;55741;53.252;5.788;2023-02-28T17:05:14;5.80;99.90
54124;DHT22;55741;53.252;5.788;2023-02-28T17:07:41;5.70;99.90
54124;DHT22;55741;53.252;5.788;2023-02-28T17:10:20;5.70;99.90
54124;DHT22;55741;53.252;5.788;2023-02-28T17:12:48;5.60;99.90
54124;DHT22;55741;53.252;5.788;2023-02-28T17:15:18;5.50;99.90
54124;DHT22;55741;53.252;5.788;2023-02-28T17:17:46;5.50;99.90
54124;DHT22;55741;53.252;5.788;2023-02-28T17:20:22;5.40;99.90
54124;DHT22;55741;53.252;5.788;2023-02-28T17:22:52;5.30;99.90
54124;DHT22;55741;53.252;5.788;2023-02-28T17:25:19;5.30;99.90
54124;DHT22;55741;53.252;5.788;2023-02-28T17:27:45;5.20;99.90
54124;DHT22;55741;53.252;5.788;2023-02-28T17:30:21;5.10;99.90
54124;DHT22;55741;53.252;5.788;2023-02-28T17:32:47;5.10;99.90
54124;DHT22;55741;53.252;5.788;2023-02-28T17:35:14;5.00;99.90
54124;DHT22;55741;53.252;5.788;2023-02-28T17:37:40;4.90;99.90
54124;DHT22;55741;53.252;5.788;2023-02-28T17:40:16;4.80;99.90
54124;DHT22;55741;53.252;5.788;2023-02-28T17:42:43;4.70;99.90
54124;DHT22;55741;53.252;5.788;2023-02-28T17:45:10;4.70;99.90
54124;DHT22;55741;53.252;5.788;2023-02-28T17:47:36;4.60;99.90
54124;DHT22;55741;53.252;5.788;2023-02-28T17:50:02;4.60;99.90
54124;DHT22;55741;53.252;5.788;2023-02-28T17:52:29;4.50;99.90
54124;DHT22;55741;53.252;5.788;2023-02-28T17:54:55;4.40;99.90
54124;DHT22;55741;53.252;5.788;2023-02-28T17:57:22;4.30;99.90
54124;DHT22;55741;53.252;5.788;2023-02-28T17:59:48;4.30;99.90
54124;DHT22;55741;53.252;5.788;2023-02-28T18:02:14;4.20;99.90
54124;DHT22;55741;53.252;5.788;2023-02-28T18:04:41;4.20;99.90
54124;DHT22;55741;53.252;5.788;2023-02-28T18:07:10;4.20;99.90
54124;DHT22;55741;53.252;5.788;2023-02-28T18:09:36;4.20;99.90
54124;DHT22;55741;53.252;5.788;2023-02-28T18:12:02;4.10;99.90
54124;DHT22;55741;53.252;5.788;2023-02-28T18:14:30;4.00;99.90
54124;DHT22;55741;53.252;5.788;2023-02-28T18:17:04;4.00;99.90
54124;DHT22;55741;53.252;5.788;2023-02-28T18:19:43;4.00;99.90
54124;DHT22;55741;53.252;5.788;2023-02-28T18:22:09;3.90;99.90
54124;DHT22;55741;53.252;5.788;2023-02-28T18:24:35;3.90;99.90
54124;DHT22;55741;53.252;5.788;2023-02-28T18:27:02;3.90;99.90
54124;DHT22;55741;53.252;5.788;2023-02-28T18:29:28;3.90;99.90